KMSO

Missoula International Airport

Missoula, Montana, USA
KMSO 201120Z 2012/2112 17005KT P6SM SKC FM202100 31013G22KT P6SM SKC FM210300 32008KT P6SM SKC
Issued Valid From Valid To
Jul-20 @ 11:20 UTC
(3 hours ago)
Jul-20 @ 12:00 UTC
(3 hours ago)
Jul-21 @ 12:00 UTC
(in 21 hours)
Jul-20 @ 12:00 to Jul-20 @ 21:00
KMSO 201120Z 2012/2112 17005KT P6SM SKC
Wind Visibility Clouds
170° at 5 knots Greater than 6 miles
  • Clear skies
From Jul-20 @ 21:00 to Jul-21 @ 03:00
FM202100 31013G22KT P6SM SKC
Wind Visibility Clouds
310° at 13 knots
 Gusting to 22 knots
Greater than 6 miles
  • Clear skies
From Jul-21 @ 03:00 to Jul-21 @ 12:00
FM210300 32008KT P6SM SKC
Wind Visibility Clouds
320° at 8 knots Greater than 6 miles
  • Clear skies
KMSO 201120Z 2012/2112 17005KT P6SM SKC FM202100 31013G22KT P6SM SKC FM210300 32008KT P6SM SKC
Issued Jul-20 @ 11:20 UTC
(3 hours ago)
Valid From Jul-20 @ 12:00 UTC
(3 hours ago)
Valid To Jul-21 @ 12:00 UTC
(in 21 hours)
Jul-20 @ 12:00 - Jul-20 @ 21:00
Wind Visibility
170° at 5 knots Greater than 6 miles
Clouds
  • Clear skies
From Jul-20 @ 21:00 - Jul-21 @ 03:00
Wind Visibility
310° at 13 knots
 Gusting to 22 knots
Greater than 6 miles
Clouds
  • Clear skies
From Jul-21 @ 03:00 - Jul-21 @ 12:00
Wind Visibility
320° at 8 knots Greater than 6 miles
Clouds
  • Clear skies